createdAt,value
2018-01-07T00:01:37.489Z,22.58
2018-01-07T00:04:07.418Z,20.20
2018-01-07T00:06:35.594Z,18.80
2018-01-07T00:09:03.987Z,21.05
2018-01-07T00:11:32.777Z,21.10
2018-01-07T00:14:01.687Z,18.52
2018-01-07T00:16:29.858Z,19.83
2018-01-07T00:18:58.808Z,19.60
2018-01-07T00:21:29.937Z,17.67
2018-01-07T00:23:59.009Z,15.10
2018-01-07T00:26:27.173Z,17.37
2018-01-07T00:28:55.954Z,20.75
2018-01-07T00:31:24.386Z,23.67
2018-01-07T00:33:54.244Z,17.87
2018-01-07T00:36:22.453Z,19.33
2018-01-07T00:38:51.443Z,15.80
2018-01-07T00:41:22.558Z,16.40
2018-01-07T00:43:51.617Z,18.55
2018-01-07T00:46:20.557Z,20.02
2018-01-07T00:48:48.713Z,22.08
2018-01-07T00:51:17.036Z,17.27
2018-01-07T00:53:46.673Z,16.62
2018-01-07T00:56:15.432Z,13.43
2018-01-07T00:58:43.637Z,16.00
2018-01-07T01:01:11.810Z,13.02
2018-01-07T01:03:39.980Z,17.62
2018-01-07T01:06:08.899Z,17.73
2018-01-07T01:08:37.850Z,14.05
2018-01-07T01:11:07.576Z,16.92
2018-01-07T01:13:37.028Z,14.60
2018-01-07T01:16:05.472Z,16.50
2018-01-07T01:18:33.669Z,12.27
2018-01-07T01:21:01.847Z,17.10
2018-01-07T01:23:36.741Z,21.15
2018-01-07T01:26:04.924Z,15.88
2018-01-07T01:28:33.095Z,16.20
2018-01-07T01:31:01.641Z,18.87
2018-01-07T01:33:31.141Z,19.80
2018-01-07T01:36:00.869Z,19.37
2018-01-07T01:38:29.033Z,20.17
2018-01-07T01:40:57.957Z,19.90
2018-01-07T01:43:26.801Z,24.73
2018-01-07T01:45:55.721Z,25.05
2018-01-07T01:48:25.345Z,24.55
2018-01-07T01:50:53.538Z,26.17
2018-01-07T01:53:21.692Z,23.05
2018-01-07T01:55:52.359Z,25.23
2018-01-07T01:58:20.580Z,30.73
2018-01-07T02:00:49.516Z,62.67
2018-01-07T02:03:18.534Z,38.40
2018-01-07T02:05:47.497Z,23.75
2018-01-07T02:08:15.892Z,27.17
2018-01-07T02:10:44.327Z,32.75
2018-01-07T02:13:12.713Z,37.72
2018-01-07T02:15:41.673Z,35.80
2018-01-07T02:18:10.605Z,32.88
2018-01-07T02:20:39.135Z,36.63
2018-01-07T02:23:07.288Z,40.97
2018-01-07T02:25:35.485Z,38.17
2018-01-07T02:28:05.157Z,35.72
2018-01-07T02:30:34.141Z,36.92
2018-01-07T02:35:59.760Z,26.05
2018-01-07T02:38:28.203Z,59.20
2018-01-07T02:40:56.369Z,62.13
2018-01-07T02:43:24.528Z,54.75
2018-01-07T02:45:53.510Z,31.08
2018-01-07T02:48:23.254Z,51.95
2018-01-07T02:50:51.480Z,43.15
2018-01-07T02:53:20.014Z,69.12
2018-01-07T02:55:48.240Z,48.40
2018-01-07T02:58:16.500Z,46.72
2018-01-07T03:00:44.676Z,51.30
2018-01-07T03:03:12.971Z,49.90
2018-01-07T03:05:41.291Z,40.28
2018-01-07T03:08:10.255Z,34.88
2018-01-07T03:10:38.446Z,23.58
2018-01-07T03:13:08.353Z,23.10
2018-01-07T03:15:36.515Z,25.33
2018-01-07T03:18:05.752Z,23.33
2018-01-07T03:20:34.734Z,43.45
2018-01-07T03:23:03.098Z,31.12
2018-01-07T03:25:31.835Z,28.95
2018-01-07T03:28:02.173Z,48.60
2018-01-07T03:30:31.113Z,58.85
2018-01-07T03:33:00.262Z,33.42
2018-01-07T03:35:28.460Z,51.63
2018-01-07T03:37:58.122Z,58.78
2018-01-07T03:40:28.654Z,19.23
2018-01-07T03:42:58.150Z,41.37
2018-01-07T03:45:27.351Z,33.47
2018-01-07T03:47:56.289Z,68.12
2018-01-07T03:50:24.452Z,62.20
2018-01-07T03:52:53.334Z,47.72
2018-01-07T03:55:21.509Z,49.78
2018-01-07T03:57:50.427Z,33.92
2018-01-07T04:00:21.418Z,26.95
2018-01-07T04:02:50.827Z,41.05
2018-01-07T04:05:19.465Z,29.60
2018-01-07T04:07:47.677Z,30.48
2018-01-07T04:10:17.576Z,27.25
2018-01-07T04:12:48.608Z,52.97
2018-01-07T04:15:17.363Z,34.70
2018-01-07T04:17:46.098Z,16.42
2018-01-07T04:20:15.022Z,36.60
2018-01-07T04:22:43.837Z,37.47
2018-01-07T04:25:12.252Z,22.65
2018-01-07T04:27:40.931Z,86.55
2018-01-07T04:30:11.540Z,20.08
2018-01-07T04:32:40.921Z,72.37
2018-01-07T04:35:10.768Z,77.90
2018-01-07T04:37:39.786Z,65.50
2018-01-07T04:40:07.961Z,61.65
2018-01-07T04:42:38.476Z,59.38
2018-01-07T04:45:07.525Z,16.95
2018-01-07T04:47:36.227Z,22.60
2018-01-07T04:50:04.677Z,25.23
2018-01-07T04:52:32.837Z,16.92
2018-01-07T04:55:01.006Z,25.15
2018-01-07T04:57:30.452Z,48.65
2018-01-07T04:59:58.677Z,29.45
2018-01-07T05:02:29.394Z,24.83
2018-01-07T05:04:57.538Z,49.80
2018-01-07T05:07:27.451Z,21.00
2018-01-07T05:09:55.598Z,58.28
2018-01-07T05:12:25.335Z,51.42
2018-01-07T05:14:54.364Z,21.95
2018-01-07T05:17:22.554Z,58.35
2018-01-07T05:19:50.709Z,38.03
2018-01-07T05:22:20.509Z,24.98
2018-01-07T05:24:48.668Z,34.03
2018-01-07T05:27:16.815Z,32.08
2018-01-07T05:29:45.018Z,23.77
2018-01-07T05:32:14.687Z,48.97
2018-01-07T05:34:43.912Z,23.12
2018-01-07T05:37:12.169Z,82.97
2018-01-07T05:39:40.612Z,79.53
2018-01-07T05:42:08.822Z,112.90
2018-01-07T05:44:37.688Z,27.17
2018-01-07T05:47:06.627Z,23.98
2018-01-07T05:49:34.785Z,40.90
2018-01-07T05:52:03.989Z,53.08
2018-01-07T05:54:32.478Z,57.10
2018-01-07T05:57:00.627Z,38.25
2018-01-07T05:59:28.789Z,58.72
2018-01-07T06:01:58.737Z,32.92
2018-01-07T06:04:26.895Z,55.70
2018-01-07T06:06:55.122Z,53.75
2018-01-07T06:09:24.376Z,113.05
2018-01-07T06:11:52.944Z,77.87
2018-01-07T06:14:21.872Z,110.68
2018-01-07T06:16:50.963Z,67.40
2018-01-07T06:19:19.104Z,57.65
2018-01-07T06:21:48.246Z,27.98
2018-01-07T06:24:18.342Z,51.75
2018-01-07T06:26:47.498Z,37.50
2018-01-07T06:29:16.228Z,68.75
2018-01-07T06:31:44.392Z,121.95
2018-01-07T06:34:12.560Z,70.72
2018-01-07T06:36:40.741Z,106.50
2018-01-07T06:39:11.636Z,69.32
2018-01-07T06:41:41.809Z,67.30
2018-01-07T06:44:11.880Z,148.50
2018-01-07T06:46:40.349Z,69.57
2018-01-07T06:49:08.692Z,60.15
2018-01-07T06:51:36.952Z,100.35
2018-01-07T06:54:05.108Z,125.82
2018-01-07T06:56:33.704Z,31.65
2018-01-07T06:59:01.875Z,121.37
2018-01-07T07:01:30.710Z,50.92
2018-01-07T07:03:58.906Z,78.85
2018-01-07T07:06:28.086Z,50.12
2018-01-07T07:08:58.945Z,111.55
2018-01-07T07:11:27.926Z,49.10
2018-01-07T07:13:56.260Z,60.45
2018-01-07T07:16:24.421Z,103.60
2018-01-07T07:18:52.847Z,75.70
2018-01-07T07:21:21.293Z,36.97
2018-01-07T07:23:49.554Z,39.45
2018-01-07T07:29:19.849Z,51.00
2018-01-07T07:34:35.132Z,100.90
2018-01-07T07:37:04.118Z,40.25
2018-01-07T07:39:32.340Z,64.07
2018-01-07T07:42:01.265Z,48.58
2018-01-07T07:44:29.440Z,85.65
2018-01-07T07:46:57.618Z,108.95
2018-01-07T07:49:26.512Z,50.10
2018-01-07T07:51:55.475Z,61.22
2018-01-07T07:54:24.435Z,72.45
2018-01-07T07:56:52.658Z,59.05
2018-01-07T07:59:20.837Z,66.60
2018-01-07T08:01:51.173Z,63.00
2018-01-07T08:04:19.328Z,85.68
2018-01-07T08:06:59.155Z,72.65
2018-01-07T08:09:28.096Z,82.82
2018-01-07T08:11:56.392Z,43.85
2018-01-07T08:14:24.563Z,57.92
2018-01-07T08:16:57.752Z,52.67
2018-01-07T08:19:25.945Z,51.65
2018-01-07T08:22:00.625Z,50.25
2018-01-07T08:24:28.789Z,41.53
2018-01-07T08:26:56.951Z,53.35
2018-01-07T08:29:25.141Z,34.58
2018-01-07T08:32:00.446Z,45.35
2018-01-07T08:34:28.606Z,69.50
2018-01-07T08:36:58.063Z,47.83
2018-01-07T08:39:26.253Z,36.63
2018-01-07T08:41:54.736Z,43.70
2018-01-07T08:44:22.897Z,48.63
2018-01-07T08:46:51.088Z,33.30
2018-01-07T08:49:19.500Z,33.30
2018-01-07T08:51:50.472Z,55.10
2018-01-07T08:54:19.223Z,30.23
2018-01-07T08:56:47.497Z,33.92
2018-01-07T08:59:15.694Z,29.45
2018-01-07T09:01:43.913Z,72.32
2018-01-07T09:04:12.083Z,52.15
2018-01-07T09:06:40.240Z,44.92
2018-01-07T09:09:08.392Z,44.83
2018-01-07T09:11:38.338Z,44.85
2018-01-07T09:14:06.492Z,37.90
2018-01-07T09:16:34.649Z,37.38
2018-01-07T09:19:03.589Z,41.53
2018-01-07T09:21:31.850Z,32.53
2018-01-07T09:24:00.016Z,36.80
2018-01-07T09:26:28.192Z,35.30
2018-01-07T09:28:56.360Z,32.70
2018-01-07T09:31:24.566Z,44.20
2018-01-07T09:33:52.725Z,38.72
2018-01-07T09:36:20.883Z,41.20
2018-01-07T09:38:49.051Z,32.47
2018-01-07T09:41:17.237Z,39.28
2018-01-07T09:43:45.408Z,34.63
2018-01-07T09:46:13.618Z,43.10
2018-01-07T09:48:41.774Z,34.83
2018-01-07T09:51:09.915Z,37.30
2018-01-07T09:53:38.103Z,40.63
2018-01-07T09:56:06.298Z,39.40
2018-01-07T09:58:35.674Z,37.72
2018-01-07T10:01:04.686Z,51.03
2018-01-07T10:03:32.841Z,37.70
2018-01-07T10:06:00.987Z,47.08
2018-01-07T10:08:29.209Z,36.30
2018-01-07T10:10:57.380Z,52.38
2018-01-07T10:13:25.536Z,46.37
2018-01-07T10:15:53.689Z,38.72
2018-01-07T10:18:22.115Z,36.20
2018-01-07T10:20:50.269Z,42.80
2018-01-07T10:23:18.505Z,45.50
2018-01-07T10:25:46.709Z,45.47
2018-01-07T10:28:14.869Z,39.85
2018-01-07T10:30:44.628Z,49.65
2018-01-07T10:33:15.442Z,42.65
2018-01-07T10:35:43.606Z,39.35
2018-01-07T10:38:12.870Z,50.30
2018-01-07T10:40:42.657Z,51.08
2018-01-07T10:43:10.922Z,45.50
2018-01-07T10:45:39.174Z,43.60
2018-01-07T10:48:07.334Z,52.60
2018-01-07T10:50:36.224Z,44.05
2018-01-07T10:53:05.859Z,42.40
2018-01-07T10:55:33.980Z,50.65
2018-01-07T10:58:02.145Z,54.70
2018-01-07T11:00:35.866Z,50.00
2018-01-07T11:03:04.093Z,53.10
2018-01-07T11:05:32.257Z,52.10
2018-01-07T11:08:01.125Z,49.65
2018-01-07T11:10:29.315Z,43.42
2018-01-07T11:13:12.182Z,36.20
2018-01-07T11:15:40.330Z,40.08
2018-01-07T11:18:09.596Z,39.83
2018-01-07T11:20:38.508Z,43.80
2018-01-07T11:23:06.660Z,37.05
2018-01-07T11:25:34.827Z,39.45
2018-01-07T11:28:03.012Z,38.25
2018-01-07T11:30:32.178Z,35.13
2018-01-07T11:33:01.457Z,39.33
2018-01-07T11:35:29.632Z,36.33
2018-01-07T11:37:58.122Z,38.85
2018-01-07T11:40:26.277Z,39.03
2018-01-07T11:42:57.603Z,37.13
2018-01-07T11:45:25.758Z,36.10
2018-01-07T11:47:54.698Z,41.05
2018-01-07T11:50:22.866Z,38.55
2018-01-07T11:52:56.025Z,40.33
2018-01-07T11:55:24.210Z,36.92
2018-01-07T11:57:52.360Z,32.67
2018-01-07T12:00:21.284Z,39.00
2018-01-07T12:02:49.622Z,31.40
2018-01-07T12:05:17.784Z,30.90
2018-01-07T12:07:45.977Z,37.17
2018-01-07T12:10:20.277Z,35.85
2018-01-07T12:12:55.016Z,30.60
2018-01-07T12:15:37.297Z,28.02
2018-01-07T12:18:05.479Z,28.80
2018-01-07T12:20:35.778Z,29.45
2018-01-07T12:23:03.935Z,25.98
2018-01-07T12:25:39.018Z,25.88
2018-01-07T12:28:07.234Z,28.00
2018-01-07T12:30:35.385Z,27.20
2018-01-07T12:33:04.315Z,28.50
2018-01-07T12:35:32.475Z,27.08
2018-01-07T12:38:00.624Z,25.10
2018-01-07T12:40:29.553Z,27.50
2018-01-07T12:42:57.807Z,26.75
2018-01-07T12:45:25.966Z,21.67
2018-01-07T12:47:54.884Z,21.77
2018-01-07T12:50:23.684Z,26.10
2018-01-07T12:52:52.969Z,25.62
2018-01-07T12:55:21.152Z,25.55
2018-01-07T12:57:49.326Z,19.33
2018-01-07T13:00:17.519Z,26.17
2018-01-07T13:02:48.969Z,19.20
2018-01-07T13:05:17.216Z,20.88
2018-01-07T13:07:45.397Z,21.92
2018-01-07T13:10:13.556Z,19.50
2018-01-07T13:12:41.832Z,20.42
2018-01-07T13:15:10.009Z,25.95
2018-01-07T13:17:38.193Z,23.35
2018-01-07T13:20:14.975Z,18.40
2018-01-07T13:22:44.162Z,19.48
2018-01-07T13:25:12.309Z,21.30
2018-01-07T13:27:40.465Z,18.70
2018-01-07T13:30:08.629Z,20.25
2018-01-07T13:32:45.163Z,18.58
2018-01-07T13:35:19.913Z,18.08
2018-01-07T13:37:49.195Z,18.62
2018-01-07T13:40:17.609Z,18.20
2018-01-07T13:42:46.568Z,18.02
2018-01-07T13:45:14.735Z,19.95
2018-01-07T13:47:42.906Z,20.95
2018-01-07T13:50:11.658Z,21.95
2018-01-07T13:52:39.889Z,18.12
2018-01-07T13:55:08.047Z,17.48
2018-01-07T13:57:36.223Z,16.87
2018-01-07T14:00:04.397Z,18.80
2018-01-07T14:02:34.298Z,24.50
2018-01-07T14:05:02.595Z,19.02
2018-01-07T14:07:30.749Z,17.92
2018-01-07T14:09:59.479Z,20.33
2018-01-07T14:12:27.748Z,23.58
2018-01-07T14:14:55.915Z,15.82
2018-01-07T14:17:26.036Z,15.60
2018-01-07T14:19:54.183Z,16.50
2018-01-07T14:22:22.451Z,21.45
2018-01-07T14:24:50.601Z,17.00
2018-01-07T14:27:19.531Z,15.27
2018-01-07T14:29:48.554Z,20.52
2018-01-07T14:32:17.663Z,16.58
2018-01-07T14:34:45.853Z,14.75
2018-01-07T14:37:14.013Z,12.75
2018-01-07T14:39:42.483Z,15.40
2018-01-07T14:42:10.705Z,15.52
2018-01-07T14:44:38.888Z,14.48
2018-01-07T14:47:07.060Z,17.48
2018-01-07T14:49:35.259Z,16.45
2018-01-07T14:52:03.419Z,13.80
2018-01-07T14:54:31.579Z,14.98
2018-01-07T14:57:01.373Z,17.55
2018-01-07T14:59:29.522Z,15.20
2018-01-07T15:01:57.767Z,15.30
2018-01-07T15:04:25.924Z,17.00
2018-01-07T15:06:54.135Z,12.43
2018-01-07T15:09:22.575Z,15.10
2018-01-07T15:11:51.694Z,15.75
2018-01-07T15:14:20.507Z,15.80
2018-01-07T15:16:49.220Z,13.20
2018-01-07T15:19:17.408Z,14.63
2018-01-07T15:21:46.425Z,17.48
2018-01-07T15:24:14.578Z,15.35
2018-01-07T15:26:42.755Z,17.20
2018-01-07T15:29:11.709Z,19.17
2018-01-07T15:31:39.939Z,16.33
2018-01-07T15:34:08.092Z,18.33
2018-01-07T15:36:37.010Z,16.80
2018-01-07T15:39:05.171Z,14.52
2018-01-07T15:41:33.440Z,25.52
2018-01-07T15:44:01.688Z,22.23
2018-01-07T15:46:29.841Z,27.75
2018-01-07T15:48:58.006Z,19.58
2018-01-07T15:51:26.181Z,15.52
2018-01-07T15:53:54.345Z,16.75
2018-01-07T15:56:22.507Z,20.65
2018-01-07T15:58:50.671Z,17.45
2018-01-07T16:01:18.852Z,20.20
2018-01-07T16:03:47.022Z,17.98
2018-01-07T16:06:15.200Z,18.95
2018-01-07T16:08:43.353Z,15.85
2018-01-07T16:11:11.521Z,17.95
2018-01-07T16:13:39.678Z,16.48
2018-01-07T16:16:07.855Z,17.27
2018-01-07T16:18:36.799Z,14.63
2018-01-07T16:21:05.054Z,17.10
2018-01-07T16:23:33.210Z,18.12
2018-01-07T16:26:02.531Z,17.30
2018-01-07T16:28:30.697Z,20.12
2018-01-07T16:30:59.905Z,17.37
2018-01-07T16:33:28.084Z,18.33
2018-01-07T16:35:56.267Z,17.50
2018-01-07T16:38:24.432Z,18.92
2018-01-07T16:40:52.613Z,21.08
2018-01-07T16:43:20.764Z,17.20
2018-01-07T16:45:48.916Z,17.90
2018-01-07T16:48:17.866Z,17.02
2018-01-07T16:50:46.047Z,17.20
2018-01-07T16:53:14.205Z,16.45
2018-01-07T16:55:43.167Z,17.05
2018-01-07T16:58:12.140Z,15.70
2018-01-07T17:00:41.134Z,15.05
2018-01-07T17:03:09.302Z,13.80
2018-01-07T17:05:37.504Z,16.00
2018-01-07T17:08:05.749Z,14.20
2018-01-07T17:10:33.934Z,13.68
2018-01-07T17:13:02.160Z,13.38
2018-01-07T17:15:30.380Z,16.45
2018-01-07T17:17:58.543Z,15.07
2018-01-07T17:20:28.660Z,14.63
2018-01-07T17:22:58.795Z,15.35
2018-01-07T17:25:26.989Z,15.73
2018-01-07T17:27:55.936Z,15.90
2018-01-07T17:30:24.113Z,16.67
2018-01-07T17:32:54.001Z,20.77
2018-01-07T17:35:22.222Z,18.45
2018-01-07T17:37:50.367Z,19.12
2018-01-07T17:40:18.525Z,18.05
2018-01-07T17:42:47.746Z,15.88
2018-01-07T17:45:15.923Z,17.48
2018-01-07T17:47:44.207Z,16.95
2018-01-07T17:50:12.424Z,17.25
2018-01-07T17:52:41.161Z,15.20
2018-01-07T17:55:09.307Z,15.85
2018-01-07T17:57:37.479Z,18.35
2018-01-07T18:00:05.657Z,15.77
2018-01-07T18:02:34.047Z,18.52
2018-01-07T18:05:02.218Z,17.62
2018-01-07T18:07:30.377Z,18.00
2018-01-07T18:09:59.716Z,20.17
2018-01-07T18:12:27.932Z,16.50
2018-01-07T18:14:56.695Z,15.13
2018-01-07T18:17:25.789Z,12.55
2018-01-07T18:19:54.647Z,15.32
2018-01-07T18:22:29.790Z,13.65
2018-01-07T18:24:58.635Z,13.18
2018-01-07T18:27:26.802Z,16.20
2018-01-07T18:29:56.146Z,13.68
2018-01-07T18:32:26.142Z,15.38
2018-01-07T18:34:54.865Z,14.87
2018-01-07T18:37:23.038Z,15.48
2018-01-07T18:39:54.048Z,13.02
2018-01-07T18:42:23.919Z,16.48
2018-01-07T18:54:50.582Z,19.60
2018-01-07T18:57:19.509Z,17.40
2018-01-07T18:59:47.826Z,15.57
2018-01-07T19:02:16.070Z,17.92
2018-01-07T19:04:45.018Z,17.45
2018-01-07T19:07:14.221Z,16.95
2018-01-07T19:09:42.367Z,19.37
2018-01-07T19:12:10.686Z,17.27
2018-01-07T19:14:38.851Z,29.23
2018-01-07T19:17:07.011Z,29.02
2018-01-07T19:19:35.770Z,79.18
2018-01-07T19:22:05.776Z,22.67
2018-01-07T19:24:34.798Z,18.35
2018-01-07T19:27:02.951Z,19.23
2018-01-07T19:29:33.165Z,22.00
2018-01-07T19:32:02.285Z,24.95
2018-01-07T19:34:31.324Z,24.08
2018-01-07T19:37:00.525Z,17.00
2018-01-07T19:42:06.830Z,20.88
2018-01-07T19:47:11.925Z,16.10
2018-01-07T19:49:41.519Z,18.95
2018-01-07T19:52:09.887Z,20.90
2018-01-07T19:54:39.490Z,19.90
2018-01-07T19:57:08.812Z,18.17
2018-01-07T19:59:37.557Z,20.20
2018-01-07T20:02:06.045Z,20.75
2018-01-07T20:07:12.236Z,22.65
2018-01-07T20:09:40.572Z,17.20
2018-01-07T20:12:08.860Z,20.30
2018-01-07T20:14:38.473Z,23.02
2018-01-07T20:17:09.711Z,20.92
2018-01-07T20:19:39.470Z,22.70
2018-01-07T20:22:10.930Z,21.25
2018-01-07T20:24:39.825Z,23.27
2018-01-07T20:27:09.325Z,25.17
2018-01-07T20:29:38.456Z,26.27
2018-01-07T20:32:07.246Z,22.30
2018-01-07T20:34:35.455Z,21.02
2018-01-07T20:37:03.883Z,25.67
2018-01-07T20:39:32.705Z,23.10
2018-01-07T20:42:00.929Z,24.25
2018-01-07T20:44:29.164Z,21.25
2018-01-07T20:47:06.126Z,24.95
2018-01-07T20:49:35.264Z,23.90
2018-01-07T20:58:23.130Z,21.87
2018-01-07T21:01:02.668Z,19.27
2018-01-07T21:03:43.638Z,18.87
2018-01-07T21:09:15.489Z,17.80
2018-01-07T21:11:47.116Z,19.33
2018-01-07T21:17:34.574Z,24.95
2018-01-07T21:20:17.708Z,25.12
2018-01-07T21:22:53.072Z,21.85
2018-01-07T21:25:22.849Z,18.45
2018-01-07T21:27:51.068Z,19.75
2018-01-07T21:30:25.093Z,20.62
2018-01-07T21:32:54.618Z,20.90
2018-01-07T21:35:22.872Z,24.05
2018-01-07T21:37:51.329Z,23.98
2018-01-07T21:40:34.476Z,23.00
2018-01-07T21:43:03.053Z,22.13
2018-01-07T21:45:32.260Z,21.37
2018-01-07T21:48:12.844Z,24.70
2018-01-07T21:53:55.044Z,22.02
2018-01-07T21:56:36.892Z,24.40
2018-01-07T21:59:06.266Z,22.50
2018-01-07T22:01:47.639Z,25.15
2018-01-07T22:04:30.305Z,22.67
2018-01-07T22:10:07.948Z,24.98
2018-01-07T22:12:37.138Z,25.25
2018-01-07T22:21:16.915Z,25.00
2018-01-07T22:23:56.679Z,30.73
2018-01-07T22:26:27.448Z,26.90
2018-01-07T22:29:18.983Z,28.05
2018-01-07T22:31:55.173Z,27.27
2018-01-07T22:34:26.637Z,24.60
2018-01-07T22:37:08.148Z,27.00
2018-01-07T22:39:39.091Z,21.45
2018-01-07T22:42:09.724Z,24.95
2018-01-07T22:44:37.940Z,21.33
2018-01-07T22:47:06.717Z,24.95
2018-01-07T22:49:35.158Z,24.70
2018-01-07T22:52:04.211Z,24.12
2018-01-07T22:54:32.454Z,22.42
2018-01-07T22:57:00.671Z,27.13
2018-01-07T22:59:29.240Z,24.00
2018-01-07T23:01:59.588Z,22.60
2018-01-07T23:04:28.343Z,29.17
2018-01-07T23:06:56.560Z,22.30
2018-01-07T23:09:25.608Z,25.17
2018-01-07T23:11:54.582Z,20.75
2018-01-07T23:14:27.104Z,26.67
2018-01-07T23:16:56.290Z,24.48
2018-01-07T23:19:26.418Z,20.42
2018-01-07T23:21:58.260Z,20.75
2018-01-07T23:27:12.566Z,22.17
2018-01-07T23:29:40.840Z,24.85
2018-01-07T23:32:17.504Z,21.98
2018-01-07T23:34:49.344Z,23.08
2018-01-07T23:37:19.295Z,23.75
2018-01-07T23:39:57.737Z,24.33
2018-01-07T23:42:30.659Z,24.45
2018-01-07T23:45:09.199Z,24.20
2018-01-07T23:47:44.353Z,21.77
2018-01-07T23:50:20.618Z,21.48
2018-01-07T23:55:35.737Z,22.20
2018-01-07T23:58:04.708Z,27.10
